createdAt,value
2023-02-14T00:00:48.503Z,100838.34
2023-02-14T00:03:16.309Z,100829.47
2023-02-14T00:05:44.133Z,100833.16
2023-02-14T00:08:11.957Z,100840.19
2023-02-14T00:10:39.755Z,100840.19
2023-02-14T00:13:07.725Z,100839.19
2023-02-14T00:15:35.472Z,100839.34
2023-02-14T00:18:04.456Z,100844.53
2023-02-14T00:20:32.269Z,100840.19
2023-02-14T00:23:01.830Z,100843.72
2023-02-14T00:25:29.594Z,100844.69
2023-02-14T00:27:57.387Z,100849.06
2023-02-14T00:30:27.480Z,100849.91
2023-02-14T00:32:55.261Z,100856.97
2023-02-14T00:35:23.046Z,100865.81
2023-02-14T00:37:50.826Z,100861.44
2023-02-14T00:40:18.643Z,100866.66
2023-02-14T00:42:46.410Z,100866.66
2023-02-14T00:45:14.245Z,100865.81
2023-02-14T00:47:41.997Z,100868.34
2023-02-14T00:50:09.805Z,100873.72
2023-02-14T00:52:37.627Z,100878.22
2023-02-14T00:55:05.386Z,100881.91
2023-02-14T00:57:33.165Z,100877.38
2023-02-14T01:00:00.947Z,100878.22
2023-02-14T01:02:28.742Z,100884.44
2023-02-14T01:04:56.541Z,100885.41
2023-02-14T01:07:24.314Z,100889.78
2023-02-14T01:09:52.097Z,100902.16
2023-02-14T01:12:19.842Z,100896.81
2023-02-14T01:14:47.641Z,100909.38
2023-02-14T01:17:15.418Z,100913.72
2023-02-14T01:19:43.518Z,100914.53
2023-02-14T01:22:11.315Z,100921.59
2023-02-14T01:24:39.126Z,100923.25
2023-02-14T01:27:06.853Z,100922.44
2023-02-14T01:29:34.608Z,100928.63
2023-02-14T01:32:02.368Z,100936.66
2023-02-14T01:34:30.152Z,100945.56
2023-02-14T01:36:58.086Z,100950.91
2023-02-14T01:39:25.875Z,100953.59
2023-02-14T01:41:55.620Z,100959.78
2023-02-14T01:44:23.467Z,100958.78
2023-02-14T01:46:54.291Z,100962.47
2023-02-14T01:49:22.072Z,100959.94
2023-02-14T01:51:49.822Z,100962.75
2023-02-14T01:54:17.655Z,100971.66
2023-02-14T01:56:48.384Z,100973.47
2023-02-14T01:59:16.186Z,100984.19
2023-02-14T02:01:43.989Z,100980.69
2023-02-14T02:04:11.736Z,100984.19
2023-02-14T02:06:39.475Z,100979.84
2023-02-14T02:09:07.560Z,100979.84
2023-02-14T02:11:35.329Z,100985.22
2023-02-14T02:14:03.135Z,100990.41
2023-02-14T02:16:30.898Z,100992.22
2023-02-14T02:18:58.697Z,100990.41
2023-02-14T02:21:26.541Z,100995.94
2023-02-14T02:23:54.327Z,100997.78
2023-02-14T02:26:22.129Z,100998.59
2023-02-14T02:28:49.894Z,100996.94
2023-02-14T02:31:17.738Z,101003.13
2023-02-14T02:33:45.585Z,101004.78
2023-02-14T02:36:13.395Z,101000.28
2023-02-14T02:38:42.776Z,101007.31
2023-02-14T02:41:10.517Z,101010.00
2023-02-14T02:43:38.283Z,101012.69
2023-02-14T02:46:24.756Z,101009.19
2023-02-14T02:48:52.753Z,101009.00
2023-02-14T02:51:39.032Z,101009.00
2023-02-14T02:54:06.813Z,101016.06
2023-02-14T02:56:49.509Z,101017.72
2023-02-14T02:59:25.539Z,101018.72
2023-02-14T03:01:53.370Z,101009.00
2023-02-14T03:04:39.729Z,101010.69
2023-02-14T03:07:27.292Z,101011.53
2023-02-14T03:09:55.174Z,101010.69
2023-02-14T03:12:22.953Z,101013.22
2023-02-14T03:14:50.718Z,101007.88
2023-02-14T03:17:18.506Z,101009.69
2023-02-14T03:20:04.433Z,101008.00
2023-02-14T03:22:32.279Z,101009.00
2023-02-14T03:25:00.019Z,101005.34
2023-02-14T03:27:27.796Z,100998.28
2023-02-14T03:29:55.699Z,101000.97
2023-02-14T03:32:23.472Z,100994.78
2023-02-14T03:34:51.296Z,100989.41
2023-02-14T03:37:19.065Z,100989.56
2023-02-14T03:39:46.824Z,100988.56
2023-02-14T03:42:14.584Z,100982.53
2023-02-14T03:44:42.421Z,100989.72
2023-02-14T03:47:10.203Z,100758.59
2023-02-14T03:49:37.975Z,100977.31
2023-02-14T03:52:05.725Z,100968.44
2023-02-14T03:54:33.861Z,100981.16
2023-02-14T03:57:01.611Z,100971.44
2023-02-14T03:59:29.413Z,100972.44
2023-02-14T04:01:57.258Z,100962.72
2023-02-14T04:04:25.091Z,100969.91
2023-02-14T04:06:52.873Z,100957.38
2023-02-14T04:09:20.629Z,100958.34
2023-02-14T04:11:51.281Z,100952.16
2023-02-14T04:14:19.097Z,100954.16
2023-02-14T04:17:08.182Z,100951.47
2023-02-14T04:19:36.094Z,100944.28
2023-02-14T04:22:03.858Z,100938.91
2023-02-14T04:24:31.610Z,100933.56
2023-02-14T04:27:11.605Z,100933.56
2023-02-14T04:29:39.769Z,100928.19
2023-02-14T04:32:07.574Z,100918.50
2023-02-14T04:34:35.449Z,100911.63
2023-02-14T04:37:03.460Z,100901.91
2023-02-14T04:39:31.227Z,100905.41
2023-02-14T04:41:59.004Z,100890.34
2023-02-14T04:44:26.842Z,100888.50
2023-02-14T04:46:54.681Z,100879.63
2023-02-14T04:49:24.792Z,100878.63
2023-02-14T04:51:52.542Z,100878.63
2023-02-14T04:54:20.295Z,100868.78
2023-02-14T04:56:48.079Z,100865.91
2023-02-14T04:59:15.975Z,100864.09
2023-02-14T05:01:43.753Z,100856.91
2023-02-14T05:04:11.627Z,100849.00
2023-02-14T05:06:39.399Z,100851.84
2023-02-14T05:09:09.359Z,100839.78
2023-02-14T05:11:37.163Z,100835.41
2023-02-14T05:14:04.937Z,100836.25
2023-02-14T05:16:32.752Z,100834.59
2023-02-14T05:19:00.830Z,100827.38
2023-02-14T05:21:29.546Z,100819.34
2023-02-14T05:23:57.306Z,100818.38
2023-02-14T05:26:25.747Z,100813.84
2023-02-14T05:28:53.599Z,100805.81
2023-02-14T05:31:21.515Z,100802.31
2023-02-14T05:33:49.474Z,100801.44
2023-02-14T05:36:17.314Z,100781.03
2023-02-14T05:38:45.114Z,100781.84
2023-02-14T05:41:12.882Z,100775.66
2023-02-14T05:43:40.647Z,100773.16
2023-02-14T05:46:08.492Z,100766.13
2023-02-14T05:48:36.269Z,100758.09
2023-02-14T05:51:04.032Z,100746.53
2023-02-14T05:53:31.756Z,100745.69
2023-02-14T05:55:59.619Z,100742.84
2023-02-14T05:58:27.371Z,100732.16
2023-02-14T06:00:55.145Z,100720.59
2023-02-14T06:03:22.951Z,100717.09
2023-02-14T06:05:50.720Z,100716.22
2023-02-14T06:08:18.594Z,100702.00
2023-02-14T06:10:46.454Z,100698.50
2023-02-14T06:13:14.218Z,100688.78
2023-02-14T06:15:42.015Z,100685.41
2023-02-14T06:18:09.828Z,100680.06
2023-02-14T06:20:37.845Z,100669.34
2023-02-14T06:23:05.881Z,100663.16
2023-02-14T06:25:33.714Z,100665.84
2023-02-14T06:28:01.567Z,100649.09
2023-02-14T06:30:29.485Z,100651.47
2023-02-14T06:32:57.438Z,100641.75
2023-02-14T06:35:25.206Z,100635.41
2023-02-14T06:37:52.934Z,100630.06
2023-02-14T06:40:20.865Z,100622.84
2023-02-14T06:42:48.667Z,100619.16
2023-02-14T06:45:16.485Z,100613.78
2023-02-14T06:47:44.384Z,100611.97
2023-02-14T06:50:12.724Z,100603.94
2023-02-14T06:52:40.696Z,100595.72
2023-02-14T06:55:08.837Z,100586.72
2023-02-14T06:57:36.577Z,100575.16
2023-02-14T07:00:04.336Z,100569.63
2023-02-14T07:02:32.117Z,100565.28
2023-02-14T07:04:59.900Z,100558.25
2023-02-14T07:07:27.630Z,100559.94
2023-02-14T07:09:55.418Z,100536.81
2023-02-14T07:12:23.181Z,100539.34
2023-02-14T07:14:50.934Z,100455.78
2023-02-14T07:17:18.702Z,100524.09
2023-02-14T07:19:46.441Z,100513.59
2023-02-14T07:22:14.186Z,100507.38
2023-02-14T07:24:41.957Z,100501.03
2023-02-14T07:27:09.686Z,100501.84
2023-02-14T07:29:38.398Z,100494.66
2023-02-14T07:32:06.305Z,100492.81
2023-02-14T07:34:34.225Z,100489.31
2023-02-14T07:37:01.967Z,100490.13
2023-02-14T07:39:29.760Z,100482.97
2023-02-14T07:41:57.514Z,100475.91
2023-02-14T07:44:25.310Z,100471.56
2023-02-14T07:46:53.069Z,100471.72
2023-02-14T07:49:20.873Z,100465.53
2023-02-14T07:51:48.654Z,100457.50
2023-02-14T07:54:16.430Z,100453.16
2023-02-14T07:56:44.160Z,100447.97
2023-02-14T07:59:11.901Z,100451.50
2023-02-14T08:01:39.736Z,100449.81
2023-02-14T08:04:07.631Z,100441.75
2023-02-14T08:06:35.461Z,100442.78
2023-02-14T08:09:03.326Z,100436.41
2023-02-14T08:11:49.480Z,100432.91
2023-02-14T08:14:17.347Z,100434.59
2023-02-14T08:16:45.122Z,100415.00
2023-02-14T08:19:12.883Z,100420.34
2023-02-14T08:21:40.627Z,100418.69
2023-02-14T08:24:08.382Z,100416.00
2023-02-14T08:26:36.129Z,100422.19
2023-02-14T08:29:03.878Z,100415.84
2023-02-14T08:31:36.226Z,100424.72
2023-02-14T08:34:04.544Z,100407.81
2023-02-14T08:36:32.367Z,100179.22
2023-02-14T08:39:00.159Z,100404.94
2023-02-14T08:41:27.919Z,100410.31
2023-02-14T08:43:55.766Z,100408.66
2023-02-14T08:46:23.564Z,100394.59
2023-02-14T08:48:51.466Z,100404.47
2023-02-14T08:51:19.264Z,100403.63
2023-02-14T08:53:47.325Z,100401.94
2023-02-14T08:56:15.125Z,100401.94
2023-02-14T08:58:43.253Z,100410.00
2023-02-14T09:01:11.274Z,100404.63
2023-02-14T09:03:39.172Z,100402.78
2023-02-14T09:06:07.668Z,100400.28
2023-02-14T09:08:38.288Z,100401.94
2023-02-14T09:11:06.081Z,100400.28
2023-02-14T09:13:33.857Z,100398.59
2023-02-14T09:16:01.697Z,100402.31
2023-02-14T09:18:29.538Z,100395.25
2023-02-14T09:20:57.774Z,100395.41
2023-02-14T09:23:25.758Z,100392.75
2023-02-14T09:25:53.574Z,100386.56
2023-02-14T09:28:21.360Z,100392.91
2023-02-14T09:30:49.240Z,100394.91
2023-02-14T09:33:17.056Z,100393.41
2023-02-14T09:36:03.504Z,100396.25
2023-02-14T09:38:31.312Z,100392.75
2023-02-14T09:40:59.801Z,100390.88
2023-02-14T09:43:31.698Z,100391.91
2023-02-14T09:45:59.527Z,100386.56
2023-02-14T09:48:28.274Z,100390.22
2023-02-14T09:50:56.119Z,100389.53
2023-02-14T09:53:23.877Z,100392.91
2023-02-14T09:55:51.632Z,100389.22
2023-02-14T09:58:20.141Z,100392.75
2023-02-14T10:00:48.076Z,100383.88
2023-02-14T10:03:15.888Z,100385.53
2023-02-14T10:05:43.777Z,100384.72
2023-02-14T10:08:11.603Z,100384.50
2023-02-14T10:10:39.716Z,100383.69
2023-02-14T10:13:07.679Z,100381.84
2023-02-14T10:15:35.417Z,100392.53
2023-02-14T10:18:03.347Z,100386.38
2023-02-14T10:20:31.180Z,100390.06
2023-02-14T10:22:58.976Z,100382.84
2023-02-14T10:25:26.821Z,100387.19
2023-02-14T10:27:54.574Z,100397.91
2023-02-14T10:30:22.565Z,100400.41
2023-02-14T10:32:50.442Z,100402.25
2023-02-14T10:35:20.913Z,100403.94
2023-02-14T10:37:49.310Z,100413.81
2023-02-14T10:40:22.449Z,100408.44
2023-02-14T10:42:50.423Z,100406.59
2023-02-14T10:45:18.182Z,100415.66
2023-02-14T10:47:47.871Z,100421.00
2023-02-14T10:50:16.380Z,100425.53
2023-02-14T10:52:44.160Z,100422.84
2023-02-14T10:55:13.892Z,100413.13
2023-02-14T10:57:43.425Z,100427.34
2023-02-14T11:00:14.869Z,100433.38
2023-02-14T11:02:42.628Z,100437.56
2023-02-14T11:05:18.232Z,100435.72
2023-02-14T11:07:45.986Z,100434.75
2023-02-14T11:10:16.795Z,100427.69
2023-02-14T11:13:04.308Z,100442.78
2023-02-14T11:15:58.235Z,100441.09
2023-02-14T11:18:46.350Z,100437.56
2023-02-14T11:21:14.245Z,100458.47
2023-02-14T11:23:42.855Z,100459.66
2023-02-14T11:26:11.362Z,100479.38
2023-02-14T11:28:47.887Z,100487.25
2023-02-14T11:31:15.886Z,100495.44
2023-02-14T11:33:43.691Z,100495.28
2023-02-14T11:36:11.452Z,100504.13
2023-02-14T11:38:42.111Z,100504.31
2023-02-14T11:41:12.533Z,100516.84
2023-02-14T11:43:40.853Z,100516.00
2023-02-14T11:46:08.990Z,100519.72
2023-02-14T11:48:39.011Z,100520.69
2023-02-14T11:51:09.323Z,100526.19
2023-02-14T11:53:37.192Z,100523.72
2023-02-14T11:56:07.178Z,100527.22
2023-02-14T11:58:34.941Z,100517.50
2023-02-14T12:01:03.032Z,100527.38
2023-02-14T12:03:32.365Z,100523.88
2023-02-14T12:06:03.127Z,100533.41
2023-02-14T12:08:30.909Z,100459.34
2023-02-14T12:10:58.845Z,100532.22
2023-02-14T12:13:27.172Z,100533.94
2023-02-14T12:15:55.098Z,100540.09
2023-02-14T12:18:23.055Z,100549.16
2023-02-14T12:20:51.135Z,100551.81
2023-02-14T12:23:18.942Z,100553.50
2023-02-14T12:25:46.693Z,100560.69
2023-02-14T12:28:14.527Z,100569.56
2023-02-14T12:30:42.292Z,100566.88
2023-02-14T12:33:10.060Z,100567.72
2023-02-14T12:35:37.794Z,100564.19
2023-02-14T12:38:05.550Z,100556.31
2023-02-14T12:40:33.432Z,100560.00
2023-02-14T12:43:01.297Z,100553.81
2023-02-14T12:45:29.163Z,100562.00
2023-02-14T12:47:56.940Z,100563.00
2023-02-14T12:50:24.944Z,100565.66
2023-02-14T12:52:52.700Z,100565.84
2023-02-14T12:55:20.705Z,100573.06
2023-02-14T12:57:48.500Z,100574.88
2023-02-14T13:00:16.362Z,100588.25
2023-02-14T13:02:44.252Z,100588.25
2023-02-14T13:05:14.105Z,100593.59
2023-02-14T13:07:41.865Z,100596.13
2023-02-14T13:10:09.640Z,100594.28
2023-02-14T13:12:37.611Z,100599.47
2023-02-14T13:15:05.564Z,100594.97
2023-02-14T13:17:35.991Z,100607.38
2023-02-14T13:20:03.784Z,100606.19
2023-02-14T13:22:32.036Z,100608.88
2023-02-14T13:24:59.885Z,100608.72
2023-02-14T13:27:27.833Z,100611.22
2023-02-14T13:29:55.732Z,100621.75
2023-02-14T13:32:23.541Z,100614.56
2023-02-14T13:34:51.314Z,100620.75
2023-02-14T13:37:19.126Z,100627.81
2023-02-14T13:39:47.042Z,100627.81
2023-02-14T13:42:15.425Z,100629.47
2023-02-14T13:44:43.202Z,100627.66
2023-02-14T13:47:10.961Z,100631.97
2023-02-14T13:49:38.845Z,100633.69
2023-02-14T13:52:06.661Z,100639.03
2023-02-14T13:54:34.447Z,100635.38
2023-02-14T13:57:02.463Z,100644.22
2023-02-14T13:59:30.327Z,100645.94
2023-02-14T14:01:58.254Z,100645.94
2023-02-14T14:04:26.034Z,100640.38
2023-02-14T14:06:53.763Z,100640.25
2023-02-14T14:09:23.678Z,100653.63
2023-02-14T14:11:52.096Z,100648.25
2023-02-14T14:14:19.851Z,100645.59
2023-02-14T14:16:47.641Z,100645.75
2023-02-14T14:19:15.437Z,100653.97
2023-02-14T14:21:44.954Z,100662.00
2023-02-14T14:24:12.730Z,100652.13
2023-02-14T14:26:40.757Z,100653.97
2023-02-14T14:29:08.513Z,100649.44
2023-02-14T14:31:36.371Z,100651.97
2023-02-14T14:34:04.319Z,100647.44
2023-02-14T14:36:32.126Z,100649.09
2023-02-14T14:38:59.855Z,100656.97
2023-02-14T14:41:27.903Z,100656.97
2023-02-14T14:43:55.700Z,100645.25
2023-02-14T14:46:23.472Z,100654.97
2023-02-14T14:48:51.294Z,100653.97
2023-02-14T14:51:21.073Z,100650.31
2023-02-14T14:53:49.742Z,100655.66
2023-02-14T14:56:17.490Z,100667.19
2023-02-14T14:58:45.258Z,100667.03
2023-02-14T15:01:14.098Z,100663.34
2023-02-14T15:03:42.020Z,100668.56
2023-02-14T15:06:09.837Z,100660.38
2023-02-14T15:08:37.787Z,100665.88
2023-02-14T15:11:07.188Z,100666.72
2023-02-14T15:13:55.799Z,100661.50
2023-02-14T15:16:23.622Z,100666.03
2023-02-14T15:18:51.469Z,100661.69
2023-02-14T15:21:19.279Z,100659.00
2023-02-14T15:23:47.072Z,100659.84
2023-02-14T15:26:14.831Z,100660.00
2023-02-14T15:28:42.577Z,100651.13
2023-02-14T15:31:10.570Z,100648.47
2023-02-14T15:33:38.412Z,100647.63
2023-02-14T15:36:06.159Z,100647.63
2023-02-14T15:38:34.846Z,100644.94
2023-02-14T15:41:02.843Z,100650.31
2023-02-14T15:43:31.850Z,100647.63
2023-02-14T15:45:59.682Z,100650.31
2023-02-14T15:48:27.493Z,100653.66
2023-02-14T15:50:55.254Z,100654.63
2023-02-14T15:53:23.005Z,100658.19
2023-02-14T15:55:53.814Z,100661.69
2023-02-14T15:58:21.677Z,100663.34
2023-02-14T16:00:49.453Z,100658.81
2023-02-14T16:03:17.207Z,100661.34
2023-02-14T16:05:44.955Z,100658.69
2023-02-14T16:08:13.596Z,100656.00
2023-02-14T16:10:41.411Z,100658.69
2023-02-14T16:13:10.595Z,100652.34
2023-02-14T16:15:38.685Z,100645.28
2023-02-14T16:18:08.280Z,100656.00
2023-02-14T16:20:36.188Z,100653.47
2023-02-14T16:23:04.009Z,100656.16
2023-02-14T16:25:31.885Z,100660.69
2023-02-14T16:27:59.654Z,100659.69
2023-02-14T16:30:27.434Z,100665.88
2023-02-14T16:32:58.082Z,100665.03
2023-02-14T16:35:25.861Z,100665.88
2023-02-14T16:37:53.779Z,100672.06
2023-02-14T16:40:21.494Z,100681.78
2023-02-14T16:42:49.237Z,100680.78
2023-02-14T16:45:17.393Z,100680.63
2023-02-14T16:47:45.160Z,100683.13
2023-02-14T16:50:13.323Z,100682.13
2023-02-14T16:52:41.285Z,100686.47
2023-02-14T16:55:09.032Z,100683.78
2023-02-14T16:57:36.836Z,100685.50
2023-02-14T17:00:04.712Z,100687.16
2023-02-14T17:02:32.543Z,100690.69
2023-02-14T17:05:00.444Z,100693.38
2023-02-14T17:07:28.192Z,100688.84
2023-02-14T17:09:55.980Z,100691.53
2023-02-14T17:12:23.719Z,100685.34
2023-02-14T17:14:51.842Z,100695.19
2023-02-14T17:17:19.655Z,100693.38
2023-02-14T17:19:47.510Z,100689.81
2023-02-14T17:22:15.330Z,100683.63
2023-02-14T17:24:45.933Z,100693.69
2023-02-14T17:27:13.717Z,100701.72
2023-02-14T17:29:41.489Z,100701.88
2023-02-14T17:32:09.316Z,100691.16
2023-02-14T17:34:37.418Z,100693.81
2023-02-14T17:37:05.241Z,100693.81
2023-02-14T17:39:33.087Z,100691.16
2023-02-14T17:42:00.851Z,100691.00
2023-02-14T17:44:30.621Z,100691.16
2023-02-14T17:46:58.963Z,100691.16
2023-02-14T17:49:26.776Z,100687.50
2023-02-14T17:51:54.691Z,100687.50
2023-02-14T17:54:22.451Z,100685.50
2023-02-14T17:56:50.261Z,100681.97
2023-02-14T17:59:18.093Z,100676.44
2023-02-14T18:01:45.865Z,100679.13
2023-02-14T18:04:13.774Z,100664.75
2023-02-14T18:06:41.777Z,100669.09
2023-02-14T18:09:09.541Z,100665.41
2023-02-14T18:11:37.300Z,100665.41
2023-02-14T18:14:05.560Z,100662.75
2023-02-14T18:16:34.162Z,100667.06
2023-02-14T18:19:02.035Z,100665.22
2023-02-14T18:21:30.603Z,100666.09
2023-02-14T18:24:00.687Z,100666.09
2023-02-14T18:26:28.535Z,100665.06
2023-02-14T18:28:56.401Z,100665.06
2023-02-14T18:31:24.208Z,100665.91
2023-02-14T18:33:52.165Z,100660.75
2023-02-14T18:36:20.005Z,100661.72
2023-02-14T18:38:47.830Z,100661.72
2023-02-14T18:41:15.610Z,100664.41
2023-02-14T18:43:43.485Z,100657.38
2023-02-14T18:46:11.264Z,100650.19
2023-02-14T18:48:39.037Z,100653.00
2023-02-14T18:51:06.920Z,100643.13
2023-02-14T18:53:34.688Z,100654.72
2023-02-14T18:56:02.650Z,100652.03
2023-02-14T18:58:30.434Z,100653.84
2023-02-14T19:00:59.111Z,100652.84
2023-02-14T19:03:27.080Z,100641.31
2023-02-14T19:05:54.953Z,100638.63
2023-02-14T19:08:22.704Z,100639.47
2023-02-14T19:10:50.488Z,100634.94
2023-02-14T19:13:20.528Z,100636.78
2023-02-14T19:15:48.668Z,100631.44
2023-02-14T19:18:16.516Z,100627.06
2023-02-14T19:20:44.275Z,100625.41
2023-02-14T19:23:12.058Z,100628.22
2023-02-14T19:25:39.881Z,100630.91
2023-02-14T19:28:12.410Z,100624.88
2023-02-14T19:30:40.409Z,100623.22
2023-02-14T19:33:08.181Z,100623.22
2023-02-14T19:35:36.756Z,100623.38
2023-02-14T19:38:04.607Z,100627.75
2023-02-14T19:40:32.354Z,100621.38
2023-02-14T19:43:00.137Z,100621.38
2023-02-14T19:45:33.287Z,100621.53
2023-02-14T19:48:02.642Z,100633.09
2023-02-14T19:50:30.904Z,100624.88
2023-02-14T19:52:59.601Z,100621.53
2023-02-14T19:55:28.656Z,100628.56
2023-02-14T19:57:56.760Z,100625.88
2023-02-14T20:00:25.376Z,100619.69
2023-02-14T20:02:53.171Z,100624.19
2023-02-14T20:05:20.980Z,100616.16
2023-02-14T20:07:55.405Z,100622.38
2023-02-14T20:10:23.224Z,100618.84
2023-02-14T20:12:51.092Z,100613.50
2023-02-14T20:15:20.519Z,100620.69
2023-02-14T20:17:48.308Z,100616.16
2023-02-14T20:20:17.580Z,100619.84
2023-02-14T20:22:45.590Z,100617.84
2023-02-14T20:25:13.659Z,100616.16
2023-02-14T20:27:41.467Z,100611.66
2023-02-14T20:30:10.006Z,100616.16
2023-02-14T20:32:38.202Z,100622.38
2023-02-14T20:35:06.004Z,100622.19
2023-02-14T20:37:33.780Z,100621.38
2023-02-14T20:40:01.535Z,100622.19
2023-02-14T20:42:29.288Z,100619.69
2023-02-14T20:44:57.115Z,100618.69
2023-02-14T20:47:24.938Z,100615.19
2023-02-14T20:49:52.699Z,100624.03
2023-02-14T20:52:20.525Z,100619.53
2023-02-14T20:54:48.376Z,100623.88
2023-02-14T20:57:16.193Z,100613.84
2023-02-14T20:59:45.814Z,100620.03
2023-02-14T21:02:13.629Z,100623.56
2023-02-14T21:04:41.479Z,100628.91
2023-02-14T21:07:11.213Z,100632.41
2023-02-14T21:09:39.427Z,100631.59
2023-02-14T21:12:07.561Z,100635.97
2023-02-14T21:14:35.401Z,100639.47
2023-02-14T21:17:05.250Z,100638.63
2023-02-14T21:19:33.361Z,100644.97
2023-02-14T21:22:01.145Z,100644.16
2023-02-14T21:24:29.841Z,100646.00
2023-02-14T21:26:57.620Z,100651.34
2023-02-14T21:29:25.387Z,100644.16
2023-02-14T21:31:53.348Z,100642.28
2023-02-14T21:34:21.465Z,100642.47
2023-02-14T21:36:49.370Z,100632.91
2023-02-14T21:39:17.228Z,100646.16
2023-02-14T21:41:45.175Z,100640.94
2023-02-14T21:44:32.785Z,100640.78
2023-02-14T21:47:00.533Z,100641.63
2023-02-14T21:49:46.947Z,100640.78
2023-02-14T21:52:14.749Z,100642.63
2023-02-14T21:54:42.532Z,100648.00
2023-02-14T21:57:10.313Z,100648.00
2023-02-14T21:59:39.366Z,100648.00
2023-02-14T22:02:07.139Z,100649.66
2023-02-14T22:04:36.437Z,100657.69
2023-02-14T22:07:04.255Z,100671.09
2023-02-14T22:09:32.055Z,100664.91
2023-02-14T22:11:59.880Z,100671.09
2023-02-14T22:14:30.170Z,100661.22
2023-02-14T22:16:57.954Z,100665.56
2023-02-14T22:19:25.991Z,100657.53
2023-02-14T22:21:53.767Z,100667.41
2023-02-14T22:24:21.516Z,100666.59
2023-02-14T22:26:49.342Z,100671.94
2023-02-14T22:29:17.101Z,100675.44
2023-02-14T22:31:45.139Z,100678.13
2023-02-14T22:34:13.132Z,100679.97
2023-02-14T22:36:40.963Z,100677.47
2023-02-14T22:39:08.740Z,100689.00
2023-02-14T22:41:38.686Z,100685.50
2023-02-14T22:44:06.828Z,100691.69
2023-02-14T22:46:34.672Z,100700.53
2023-02-14T22:49:02.573Z,100702.38
2023-02-14T22:51:30.362Z,100701.41
2023-02-14T22:53:58.167Z,100707.59
2023-02-14T22:56:26.129Z,100705.75
2023-02-14T22:58:54.136Z,100711.09
2023-02-14T23:01:21.926Z,100715.44
2023-02-14T23:03:49.739Z,100714.63
2023-02-14T23:06:17.663Z,100721.81
2023-02-14T23:08:45.501Z,100725.50
2023-02-14T23:11:13.277Z,100724.50
2023-02-14T23:13:59.469Z,100732.53
2023-02-14T23:16:45.748Z,100731.69
2023-02-14T23:19:31.633Z,100744.91
2023-02-14T23:21:59.552Z,100757.47
2023-02-14T23:24:27.600Z,100747.78
2023-02-14T23:26:55.832Z,100751.28
2023-02-14T23:29:23.678Z,100747.78
2023-02-14T23:31:51.584Z,100751.44
2023-02-14T23:34:19.418Z,100761.16
2023-02-14T23:36:47.250Z,100766.66
2023-02-14T23:39:14.994Z,100777.38
2023-02-14T23:41:48.727Z,100776.56
2023-02-14T23:44:16.669Z,100788.94
2023-02-14T23:46:44.467Z,100787.25
2023-02-14T23:49:12.249Z,100781.91
2023-02-14T23:51:40.149Z,100785.41
2023-02-14T23:54:07.932Z,100794.28
2023-02-14T23:56:35.772Z,100802.31
2023-02-14T23:59:03.575Z,100823.44
